Time;durP1;ratioP1;P1;durP2;ratioP2;P2;SDS_P1;SDS_P2;PMS_P1;PMS_P2;Temp;Humidity;BMP_temperature;BMP_pressure;BME280_temperature;BME280_humidity;BME280_pressure;Samples;Min_cycle;Max_cycle;Signal;HPM_P1;HPM_P2
2023/12/29 00:02:19;;;;;;;2.55;2.38;;;9.70;99.90;;;;;;5030620;28;20049;-44
2023/12/29 00:04:45;;;;;;;3.38;2.30;;;9.60;99.90;;;;;;5011824;28;20061;-43
2023/12/29 00:07:10;;;;;;;2.25;2.15;;;9.70;99.90;;;;;;5030121;28;20046;-41
2023/12/29 00:09:40;;;;;;;3.30;2.33;;;9.80;99.90;;;;;;5029771;28;20033;-47
2023/12/29 00:12:06;;;;;;;2.50;2.20;;;9.80;99.90;;;;;;5030200;28;20076;-43
2023/12/29 00:14:32;;;;;;;2.47;2.28;;;9.80;99.90;;;;;;5030944;28;20021;-45
2023/12/29 00:16:58;;;;;;;2.30;2.10;;;9.80;99.90;;;;;;5029260;28;20463;-46
2023/12/29 00:19:23;;;;;;;2.80;2.10;;;9.80;99.90;;;;;;5029760;28;20052;-47
2023/12/29 00:21:49;;;;;;;2.78;2.17;;;9.90;99.90;;;;;;5030048;28;20071;-45
2023/12/29 00:24:14;;;;;;;5.07;2.25;;;9.80;99.90;;;;;;5012296;28;20040;-43
2023/12/29 00:26:40;;;;;;;2.47;2.28;;;9.80;99.90;;;;;;5031650;28;20033;-45
2023/12/29 00:29:06;;;;;;;6.75;2.75;;;9.90;99.90;;;;;;5032875;28;20032;-41
2023/12/29 00:31:32;;;;;;;4.40;2.42;;;9.90;99.90;;;;;;5058203;23;20232;-44
2023/12/29 00:33:57;;;;;;;3.97;2.20;;;9.90;99.90;;;;;;5034044;28;20518;-51
2023/12/29 00:36:24;;;;;;;8.18;2.65;;;10.00;99.90;;;;;;5018798;28;20055;-47
2023/12/29 00:38:49;;;;;;;3.20;2.08;;;10.00;99.90;;;;;;5053154;28;20270;-48
2023/12/29 00:41:15;;;;;;;2.10;1.63;;;10.00;99.90;;;;;;5035509;28;20044;-49
2023/12/29 00:43:41;;;;;;;3.67;2.00;;;10.00;99.90;;;;;;5072767;28;20032;-50
2023/12/29 00:46:08;;;;;;;6.25;2.15;;;10.00;99.90;;;;;;5055036;28;20115;-50
2023/12/29 00:48:34;;;;;;;2.60;2.40;;;10.00;99.90;;;;;;5064366;28;20040;-46
2023/12/29 00:51:03;;;;;;;2.28;2.08;;;10.00;99.90;;;;;;5035046;28;20477;-48
2023/12/29 00:53:33;;;;;;;2.28;2.08;;;10.00;99.90;;;;;;5053208;28;20047;-45
2023/12/29 00:55:59;;;;;;;2.42;2.00;;;10.00;99.90;;;;;;5053201;28;20032;-48
2023/12/29 00:58:25;;;;;;;2.20;2.00;;;9.90;99.90;;;;;;5035495;28;20576;-52
2023/12/29 01:00:50;;;;;;;2.92;2.22;;;9.90;99.90;;;;;;5034699;28;20075;-43
2023/12/29 01:03:16;;;;;;;5.30;2.17;;;9.90;99.90;;;;;;5052050;28;20041;-47
2023/12/29 01:05:41;;;;;;;3.80;1.83;;;9.90;99.90;;;;;;5034071;28;20032;-50
2023/12/29 01:08:07;;;;;;;3.80;2.08;;;9.80;99.90;;;;;;5050357;28;20039;-50
2023/12/29 01:10:32;;;;;;;4.13;1.80;;;9.80;99.90;;;;;;5046909;28;20028;-48
2023/12/29 01:12:58;;;;;;;3.33;2.30;;;9.80;99.90;;;;;;5071046;28;20032;-50
2023/12/29 01:15:23;;;;;;;2.78;2.35;;;9.80;99.90;;;;;;5053940;28;20047;-47
2023/12/29 01:17:49;;;;;;;3.20;2.58;;;9.80;99.90;;;;;;5054002;28;20021;-48
2023/12/29 01:20:14;;;;;;;2.97;1.95;;;9.90;99.90;;;;;;5072071;28;20024;-47
2023/12/29 01:22:40;;;;;;;2.67;2.03;;;9.90;99.90;;;;;;5053511;28;20530;-53
2023/12/29 01:25:06;;;;;;;2.85;2.30;;;9.90;99.90;;;;;;5054608;28;20430;-47
2023/12/29 01:27:32;;;;;;;2.72;2.53;;;9.90;99.90;;;;;;5053761;28;20032;-47
2023/12/29 01:29:57;;;;;;;4.88;3.05;;;9.80;99.90;;;;;;5042964;28;20025;-47
2023/12/29 01:32:23;;;;;;;2.40;2.15;;;9.80;99.90;;;;;;5050968;28;20048;-49
2023/12/29 01:34:48;;;;;;;2.08;1.90;;;9.90;99.90;;;;;;5033749;28;20024;-53
2023/12/29 01:37:14;;;;;;;2.30;1.83;;;9.90;99.90;;;;;;5052081;28;20021;-49
2023/12/29 01:39:40;;;;;;;3.63;2.10;;;9.90;99.90;;;;;;5033495;28;20024;-49
2023/12/29 01:42:06;;;;;;;5.07;2.05;;;9.90;99.90;;;;;;5050654;28;20161;-49
2023/12/29 01:44:32;;;;;;;2.22;2.03;;;9.90;99.90;;;;;;5051514;28;20033;-48
2023/12/29 01:47:00;;;;;;;2.63;2.15;;;9.90;99.90;;;;;;5033885;28;20036;-47
2023/12/29 01:49:27;;;;;;;2.53;2.33;;;9.90;99.90;;;;;;5051672;28;20032;-47
2023/12/29 01:51:55;;;;;;;2.75;1.85;;;9.90;99.90;;;;;;5044474;28;20032;-46
2023/12/29 01:54:24;;;;;;;3.17;1.83;;;9.90;99.90;;;;;;5073628;28;20055;-51
2023/12/29 01:56:51;;;;;;;1.80;1.70;;;9.80;99.90;;;;;;5091762;28;20048;-48
2023/12/29 01:59:18;;;;;;;2.55;1.98;;;9.80;99.90;;;;;;5066953;28;20487;-49
2023/12/29 02:01:45;;;;;;;1.38;1.38;;;9.80;99.90;;;;;;5033255;28;20025;-49
2023/12/29 02:04:12;;;;;;;4.30;2.03;;;9.80;99.90;;;;;;5033422;28;20029;-49
2023/12/29 02:06:39;;;;;;;3.67;1.92;;;9.80;99.90;;;;;;5051226;28;20025;-48
2023/12/29 02:09:05;;;;;;;2.05;1.90;;;9.80;99.90;;;;;;5033319;28;20058;-48
2023/12/29 02:11:31;;;;;;;1.83;1.70;;;9.80;99.90;;;;;;5033089;28;20033;-46
2023/12/29 02:13:59;;;;;;;3.67;1.80;;;9.80;99.90;;;;;;5050862;28;20033;-48
2023/12/29 02:16:40;;;;;;;2.78;2.00;;;9.80;99.90;;;;;;5033328;28;20017;-50
2023/12/29 02:19:23;;;;;;;1.50;1.40;;;9.80;99.90;;;;;;5033481;28;20434;-47
2023/12/29 02:21:48;;;;;;;4.10;1.73;;;10.30;99.90;;;;;;5050964;28;20033;-50
2023/12/29 02:24:14;;;;;;;3.53;1.70;;;9.80;99.90;;;;;;5051151;28;20088;-48
2023/12/29 02:26:45;;;;;;;2.40;1.63;;;9.80;99.90;;;;;;5051371;28;20400;-48
2023/12/29 02:29:12;;;;;;;3.08;1.98;;;9.80;99.90;;;;;;5033421;28;20090;-47
2023/12/29 02:31:42;;;;;;;6.13;1.85;;;9.80;99.90;;;;;;5032962;28;20119;-47
2023/12/29 02:34:08;;;;;;;1.85;1.75;;;9.80;99.90;;;;;;5050870;28;20021;-48
2023/12/29 02:36:42;;;;;;;2.47;1.83;;;9.80;99.90;;;;;;5036970;28;20043;-50
2023/12/29 02:39:08;;;;;;;6.05;1.70;;;9.90;99.90;;;;;;5052275;28;20396;-49
2023/12/29 02:41:34;;;;;;;2.40;2.20;;;9.90;99.90;;;;;;5033226;28;20056;-47
2023/12/29 02:43:59;;;;;;;2.80;2.13;;;9.90;99.90;;;;;;5033006;28;20025;-48
2023/12/29 02:46:25;;;;;;;3.20;2.28;;;9.90;99.90;;;;;;5051494;28;20037;-50
2023/12/29 02:48:50;;;;;;;4.80;1.88;;;9.80;99.90;;;;;;5051220;28;20396;-47
2023/12/29 02:51:16;;;;;;;2.45;2.17;;;9.80;99.90;;;;;;5050898;28;20476;-48
2023/12/29 02:53:41;;;;;;;4.30;2.35;;;9.80;99.90;;;;;;5034641;28;20110;-48
2023/12/29 02:56:07;;;;;;;1.98;1.60;;;9.80;99.90;;;;;;5073228;28;20099;-47
2023/12/29 02:58:32;;;;;;;3.35;2.20;;;9.80;99.90;;;;;;5074437;28;20028;-47
2023/12/29 03:00:58;;;;;;;3.10;1.77;;;9.80;99.90;;;;;;5074559;28;20021;-48
2023/12/29 03:03:23;;;;;;;3.83;1.90;;;9.90;99.90;;;;;;5074083;28;20086;-48
2023/12/29 03:05:49;;;;;;;3.85;1.90;;;9.90;99.90;;;;;;5056472;28;20462;-49
2023/12/29 03:08:14;;;;;;;5.35;1.98;;;9.90;99.90;;;;;;5054770;28;20047;-46
2023/12/29 03:10:40;;;;;;;2.65;1.60;;;9.90;99.90;;;;;;5074343;28;20028;-48
2023/12/29 03:13:05;;;;;;;2.42;2.22;;;9.90;99.90;;;;;;5055860;28;20024;-47
2023/12/29 03:15:31;;;;;;;2.67;1.73;;;9.90;99.90;;;;;;5074277;28;20377;-48
2023/12/29 03:17:57;;;;;;;2.22;1.58;;;9.90;99.90;;;;;;5074230;28;20021;-47
2023/12/29 03:20:22;;;;;;;2.50;1.90;;;9.90;99.90;;;;;;5056038;28;20027;-47
2023/12/29 03:22:48;;;;;;;2.53;1.90;;;9.90;99.90;;;;;;5073775;28;20387;-46
2023/12/29 03:25:14;;;;;;;2.38;2.17;;;9.90;99.90;;;;;;5074037;28;20036;-47
2023/12/29 03:27:39;;;;;;;3.38;1.70;;;9.80;99.90;;;;;;5056072;28;20025;-47
2023/12/29 03:30:05;;;;;;;4.45;2.00;;;9.80;99.90;;;;;;5073982;28;20032;-51
2023/12/29 03:32:31;;;;;;;1.65;1.55;;;9.70;99.90;;;;;;5055549;28;20039;-55
2023/12/29 03:34:56;;;;;;;5.68;1.77;;;9.80;99.90;;;;;;5057034;28;20021;-46
2023/12/29 03:37:22;;;;;;;2.45;2.17;;;9.70;99.90;;;;;;5094498;28;20055;-48
2023/12/29 03:39:47;;;;;;;3.00;1.50;;;9.70;99.90;;;;;;5060042;28;20476;-47
2023/12/29 03:42:13;;;;;;;1.73;1.40;;;9.70;99.90;;;;;;5036652;28;20039;-46
2023/12/29 03:44:38;;;;;;;4.72;1.80;;;9.70;99.90;;;;;;5036584;28;20547;-47
2023/12/29 03:47:04;;;;;;;2.63;2.08;;;9.70;99.90;;;;;;5036432;28;20439;-53
2023/12/29 03:49:30;;;;;;;2.28;2.08;;;9.60;99.90;;;;;;5054736;28;20064;-47
2023/12/29 03:51:55;;;;;;;2.42;2.17;;;9.60;99.90;;;;;;5035699;28;20025;-48
2023/12/29 03:54:21;;;;;;;4.47;1.70;;;9.50;99.90;;;;;;5053439;28;20060;-47
2023/12/29 03:56:47;;;;;;;2.13;2.00;;;9.50;99.90;;;;;;5053612;28;20507;-47
2023/12/29 03:59:12;;;;;;;3.08;1.83;;;9.50;99.90;;;;;;5035422;28;20040;-46
2023/12/29 04:01:38;;;;;;;2.25;1.67;;;9.40;99.90;;;;;;5035098;28;20025;-50
2023/12/29 04:04:04;;;;;;;2.88;1.80;;;9.40;99.90;;;;;;5062505;28;20484;-46
2023/12/29 04:06:29;;;;;;;3.33;1.83;;;9.40;99.90;;;;;;5054709;28;20025;-46
2023/12/29 04:08:55;;;;;;;2.80;1.85;;;9.40;99.90;;;;;;5073329;28;20165;-51
2023/12/29 04:11:20;;;;;;;4.30;1.95;;;9.40;99.90;;;;;;5055011;28;20021;-51
2023/12/29 04:13:46;;;;;;;6.20;2.08;;;9.40;99.90;;;;;;5054770;28;20471;-46
2023/12/29 04:16:11;;;;;;;4.47;1.67;;;9.40;99.90;;;;;;5072907;28;20031;-50
2023/12/29 04:18:37;;;;;;;3.88;1.70;;;9.40;99.90;;;;;;5055052;28;20112;-49
2023/12/29 04:21:02;;;;;;;3.95;2.03;;;9.40;99.90;;;;;;5047901;28;20401;-47
2023/12/29 04:23:28;;;;;;;3.72;1.88;;;9.40;99.90;;;;;;5034737;28;20033;-48
2023/12/29 04:25:53;;;;;;;3.35;1.98;;;9.40;99.90;;;;;;5034956;28;20032;-46
2023/12/29 04:28:19;;;;;;;2.17;1.98;;;9.40;99.90;;;;;;5035167;28;20028;-46
2023/12/29 04:30:44;;;;;;;4.90;2.20;;;9.50;99.90;;;;;;5052767;28;20039;-47
2023/12/29 04:33:10;;;;;;;3.53;1.63;;;9.40;99.90;;;;;;5034338;28;20021;-47
2023/12/29 04:35:35;;;;;;;1.80;1.70;;;9.40;99.90;;;;;;5034985;28;20039;-47
2023/12/29 04:38:01;;;;;;;2.85;1.85;;;9.40;99.90;;;;;;5034813;28;20112;-51
2023/12/29 04:40:27;;;;;;;2.25;1.70;;;9.40;99.90;;;;;;5034676;28;20025;-50
2023/12/29 04:42:52;;;;;;;1.58;1.48;;;9.40;99.90;;;;;;5034919;28;20029;-45
2023/12/29 04:45:18;;;;;;;1.70;1.60;;;9.40;99.90;;;;;;5053862;28;20119;-46
2023/12/29 04:47:43;;;;;;;2.08;1.65;;;9.40;99.90;;;;;;5055946;28;20055;-45
2023/12/29 04:50:09;;;;;;;2.38;2.17;;;9.40;99.90;;;;;;5054452;28;20020;-48
2023/12/29 04:52:34;;;;;;;2.50;1.95;;;9.40;99.90;;;;;;5073007;28;20580;-48
2023/12/29 04:55:00;;;;;;;4.55;1.90;;;9.50;99.90;;;;;;5055161;28;20025;-50
2023/12/29 04:57:25;;;;;;;2.35;2.15;;;9.50;99.90;;;;;;5074304;28;20506;-47
2023/12/29 04:59:51;;;;;;;1.92;1.73;;;9.50;99.90;;;;;;5083180;28;20029;-49
2023/12/29 05:02:16;;;;;;;3.67;2.15;;;9.50;99.90;;;;;;5076173;28;20033;-49
2023/12/29 05:04:42;;;;;;;5.03;2.13;;;9.50;99.90;;;;;;5058398;28;20024;-51
2023/12/29 05:07:09;;;;;;;2.58;2.08;;;9.50;99.90;;;;;;5053053;28;20029;-49
2023/12/29 05:09:34;;;;;;;4.05;1.90;;;9.50;99.90;;;;;;5034387;28;20025;-51
2023/12/29 05:12:00;;;;;;;3.28;2.15;;;9.50;99.90;;;;;;5033890;28;20024;-48
2023/12/29 05:14:25;;;;;;;5.47;2.10;;;9.50;99.90;;;;;;5033992;28;20021;-47
2023/12/29 05:16:51;;;;;;;3.22;1.98;;;9.50;99.90;;;;;;5051196;28;20021;-49
2023/12/29 05:19:16;;;;;;;3.35;2.13;;;9.50;99.90;;;;;;5051872;28;20096;-48
2023/12/29 05:21:42;;;;;;;1.77;1.48;;;9.50;99.90;;;;;;5051625;28;20393;-47
2023/12/29 05:24:08;;;;;;;4.65;1.67;;;9.50;99.90;;;;;;5035023;28;20510;-48
2023/12/29 05:26:33;;;;;;;4.40;3.05;;;9.50;99.90;;;;;;5070107;28;20024;-50
2023/12/29 05:28:59;;;;;;;1.85;1.67;;;9.50;99.90;;;;;;5071689;28;20029;-45
2023/12/29 05:31:24;;;;;;;2.65;1.50;;;9.50;99.90;;;;;;5053404;28;20118;-47
2023/12/29 05:33:51;;;;;;;5.50;2.42;;;9.50;99.90;;;;;;5071547;28;20024;-47
2023/12/29 05:36:16;;;;;;;3.08;1.80;;;9.50;99.90;;;;;;5053447;28;20052;-45
2023/12/29 05:38:46;;;;;;;4.63;1.70;;;9.50;99.90;;;;;;5053727;28;20557;-49
2023/12/29 05:41:13;;;;;;;1.52;1.42;;;9.50;99.90;;;;;;5053781;28;20024;-49
2023/12/29 05:43:39;;;;;;;3.67;1.88;;;9.50;99.90;;;;;;5053518;28;20444;-46
2023/12/29 05:46:10;;;;;;;3.78;1.92;;;9.60;99.90;;;;;;5053931;28;20123;-48
2023/12/29 05:48:36;;;;;;;3.45;1.88;;;9.50;99.90;;;;;;5053511;28;20020;-49
2023/12/29 05:51:09;;;;;;;2.08;1.90;;;9.50;99.90;;;;;;5053606;28;20035;-46
2023/12/29 05:53:36;;;;;;;3.33;1.88;;;9.50;99.90;;;;;;5053218;28;20043;-47
2023/12/29 05:56:01;;;;;;;4.47;1.92;;;9.50;99.90;;;;;;5053599;28;20123;-47
2023/12/29 05:58:27;;;;;;;1.65;1.42;;;9.60;99.90;;;;;;5053489;28;20060;-47
2023/12/29 06:00:54;;;;;;;2.70;1.65;;;9.60;99.90;;;;;;5053565;28;20031;-47
2023/12/29 06:03:19;;;;;;;1.65;1.40;;;9.60;99.90;;;;;;5053804;28;20492;-45
2023/12/29 06:05:45;;;;;;;3.15;1.60;;;9.60;99.90;;;;;;5035879;28;20025;-50
2023/12/29 06:08:10;;;;;;;2.42;1.50;;;9.60;99.90;;;;;;5051239;28;20036;-50
2023/12/29 06:10:36;;;;;;;2.72;1.90;;;9.60;99.90;;;;;;5033298;28;20128;-45
2023/12/29 06:13:03;;;;;;;2.08;1.88;;;9.70;99.90;;;;;;5032963;28;20053;-47
2023/12/29 06:15:29;;;;;;;1.80;1.70;;;9.70;99.90;;;;;;5033417;28;20036;-49
2023/12/29 06:17:54;;;;;;;1.70;1.60;;;9.70;99.90;;;;;;5033332;28;20017;-48
2023/12/29 06:20:20;;;;;;;1.45;1.38;;;9.80;99.90;;;;;;5051311;28;20021;-46
2023/12/29 06:22:45;;;;;;;3.83;1.70;;;9.80;99.90;;;;;;5044328;28;20029;-50
2023/12/29 06:25:11;;;;;;;2.42;2.08;;;9.90;99.90;;;;;;5053192;28;20028;-48
2023/12/29 06:27:38;;;;;;;3.75;2.00;;;9.90;99.90;;;;;;5053291;28;20036;-48
2023/12/29 06:30:08;;;;;;;3.13;1.55;;;10.00;99.90;;;;;;5057114;28;20025;-52
2023/12/29 06:32:34;;;;;;;2.13;1.42;;;10.10;99.90;;;;;;5057108;28;20036;-52
2023/12/29 06:35:00;;;;;;;3.70;1.60;;;10.10;99.90;;;;;;5056987;28;20016;-53
2023/12/29 06:37:25;;;;;;;4.22;1.50;;;10.20;99.90;;;;;;5056981;28;20064;-50
2023/12/29 06:39:51;;;;;;;1.90;1.58;;;10.20;99.90;;;;;;5056864;28;20021;-46
2023/12/29 06:42:16;;;;;;;2.33;1.83;;;10.20;99.90;;;;;;5074523;28;20024;-47
2023/12/29 06:44:42;;;;;;;2.08;1.88;;;10.30;99.90;;;;;;5054850;28;20108;-49
2023/12/29 06:47:07;;;;;;;1.83;1.45;;;10.30;99.90;;;;;;5054881;28;20029;-47
2023/12/29 06:49:36;;;;;;;2.08;1.88;;;10.30;99.90;;;;;;5054756;28;20029;-46
2023/12/29 06:52:02;;;;;;;2.47;2.05;;;10.40;99.90;;;;;;5054316;28;20029;-46
2023/12/29 06:54:27;;;;;;;1.88;1.77;;;10.40;99.90;;;;;;5054292;28;20033;-46
2023/12/29 06:56:53;;;;;;;2.78;1.85;;;10.40;99.90;;;;;;5054672;28;20056;-46
2023/12/29 06:59:19;;;;;;;2.10;1.92;;;10.40;99.90;;;;;;5060202;28;20029;-51
2023/12/29 07:01:45;;;;;;;2.65;1.92;;;10.50;99.90;;;;;;5074357;28;20020;-46
2023/12/29 07:04:11;;;;;;;6.65;2.20;;;10.40;99.90;;;;;;5074317;28;20020;-48
2023/12/29 07:06:37;;;;;;;3.58;1.70;;;10.40;99.90;;;;;;5074209;28;20025;-46
2023/12/29 07:09:02;;;;;;;5.60;1.95;;;10.40;99.90;;;;;;5074317;28;20033;-47
2023/12/29 07:11:28;;;;;;;3.60;1.60;;;10.30;99.90;;;;;;5041830;28;20112;-46
2023/12/29 07:13:54;;;;;;;4.72;2.47;;;10.40;99.90;;;;;;5053992;28;20028;-46
2023/12/29 07:16:20;;;;;;;3.53;1.58;;;10.40;99.90;;;;;;5054290;28;20082;-46
2023/12/29 07:18:46;;;;;;;4.28;1.88;;;10.40;99.90;;;;;;5054254;28;20021;-47
2023/12/29 07:21:12;;;;;;;1.60;1.23;;;10.40;99.90;;;;;;5054106;28;20025;-48
2023/12/29 07:23:38;;;;;;;4.15;3.00;;;10.40;99.90;;;;;;5053752;28;20052;-47
2023/12/29 07:26:04;;;;;;;2.97;1.75;;;10.40;99.90;;;;;;5054122;28;20106;-46
2023/12/29 07:28:31;;;;;;;3.58;1.75;;;10.40;99.90;;;;;;5054328;28;20489;-47
2023/12/29 07:30:56;;;;;;;1.20;1.10;;;10.40;99.90;;;;;;5054706;28;20088;-46
2023/12/29 07:33:23;;;;;;;1.38;1.27;;;10.50;99.90;;;;;;5054281;28;20056;-46
2023/12/29 07:35:49;;;;;;;4.63;1.40;;;10.40;99.90;;;;;;5054261;28;20017;-46
2023/12/29 07:38:15;;;;;;;2.53;1.40;;;10.40;99.90;;;;;;5055293;28;20032;-46
2023/12/29 07:40:40;;;;;;;2.35;1.58;;;10.40;99.90;;;;;;5053779;28;20030;-48
2023/12/29 07:43:06;;;;;;;3.42;1.50;;;10.50;99.90;;;;;;5073853;28;20487;-52
2023/12/29 07:45:31;;;;;;;1.45;1.35;;;10.50;99.90;;;;;;5073795;28;20028;-46
2023/12/29 07:47:57;;;;;;;1.90;1.23;;;10.50;99.90;;;;;;5073555;28;20025;-50
2023/12/29 07:50:22;;;;;;;3.05;1.50;;;10.50;99.90;;;;;;5058358;28;20033;-49
2023/12/29 07:52:48;;;;;;;2.80;1.70;;;10.60;99.90;;;;;;5053114;28;20508;-49
2023/12/29 07:55:16;;;;;;;3.83;1.63;;;10.60;99.90;;;;;;5053370;28;20094;-49
2023/12/29 07:57:42;;;;;;;2.42;1.67;;;10.60;99.90;;;;;;5053439;28;20040;-47
2023/12/29 08:00:09;;;;;;;1.55;1.27;;;10.70;99.90;;;;;;5054527;28;20028;-47
2023/12/29 08:02:34;;;;;;;4.45;1.73;;;10.70;99.90;;;;;;5053036;28;20155;-49
2023/12/29 08:05:00;;;;;;;4.50;1.48;;;10.70;99.90;;;;;;5053258;28;20020;-49
2023/12/29 08:07:26;;;;;;;3.35;1.52;;;10.70;99.90;;;;;;5077305;28;20028;-49
2023/12/29 08:09:51;;;;;;;1.95;1.70;;;10.70;99.90;;;;;;5093319;28;20039;-48
2023/12/29 08:12:17;;;;;;;2.88;1.48;;;10.70;99.90;;;;;;5092931;28;20409;-46
2023/12/29 08:14:42;;;;;;;5.30;1.60;;;10.70;99.90;;;;;;5093326;28;20096;-48
2023/12/29 08:17:08;;;;;;;1.55;1.20;;;10.70;99.90;;;;;;5093489;28;20040;-48
2023/12/29 08:19:34;;;;;;;3.22;1.58;;;10.80;99.90;;;;;;5093246;28;20016;-51
2023/12/29 08:22:00;;;;;;;4.82;1.38;;;10.80;99.90;;;;;;5092744;28;20020;-48
2023/12/29 08:24:25;;;;;;;3.40;1.40;;;10.80;99.90;;;;;;5093339;28;20040;-48
2023/12/29 08:26:50;;;;;;;1.75;1.42;;;10.80;99.90;;;;;;5075255;28;20078;-48
2023/12/29 08:29:16;;;;;;;7.78;1.60;;;10.80;99.90;;;;;;5075424;28;20395;-47
2023/12/29 08:31:43;;;;;;;2.92;1.20;;;10.80;99.90;;;;;;5093216;28;20060;-47
2023/12/29 08:34:08;;;;;;;2.33;1.38;;;10.80;99.90;;;;;;5091829;28;20016;-51
2023/12/29 08:36:34;;;;;;;1.63;1.08;;;10.80;99.90;;;;;;5058774;28;20032;-47
2023/12/29 08:39:00;;;;;;;1.00;0.90;;;10.90;99.90;;;;;;5053713;28;20016;-50
2023/12/29 08:41:25;;;;;;;2.67;1.30;;;10.80;99.90;;;;;;5070644;28;20111;-50
2023/12/29 08:43:51;;;;;;;3.22;1.50;;;10.80;99.90;;;;;;5072264;28;20395;-51
2023/12/29 08:46:16;;;;;;;9.45;2.78;;;10.90;99.90;;;;;;5072566;28;20035;-54
2023/12/29 08:48:42;;;;;;;2.47;1.30;;;10.90;99.90;;;;;;5072991;28;20029;-47
2023/12/29 08:51:07;;;;;;;2.05;1.70;;;10.90;99.90;;;;;;5072144;28;20051;-48
2023/12/29 08:53:35;;;;;;;1.77;1.30;;;10.90;99.90;;;;;;5071789;28;20472;-47
2023/12/29 08:56:01;;;;;;;6.53;2.17;;;10.90;99.90;;;;;;5060188;28;20048;-51
2023/12/29 08:58:27;;;;;;;1.25;0.90;;;10.90;99.90;;;;;;5052182;28;20043;-50
2023/12/29 09:00:54;;;;;;;2.55;1.55;;;10.90;99.90;;;;;;5052222;28;20025;-47
2023/12/29 09:03:19;;;;;;;3.22;1.50;;;11.00;99.90;;;;;;5034162;28;20035;-45
2023/12/29 09:05:45;;;;;;;6.63;1.42;;;10.90;99.90;;;;;;5052878;28;20025;-43
2023/12/29 09:08:10;;;;;;;3.05;1.40;;;11.00;99.90;;;;;;5064018;28;20048;-46
2023/12/29 09:10:36;;;;;;;4.75;1.35;;;10.90;99.90;;;;;;5071807;28;20028;-46
2023/12/29 09:13:01;;;;;;;5.25;1.60;;;11.00;99.90;;;;;;5061363;28;20103;-48
2023/12/29 09:15:27;;;;;;;4.05;1.83;;;11.00;99.90;;;;;;5072114;28;20028;-47
2023/12/29 09:17:52;;;;;;;4.90;1.17;;;11.00;99.90;;;;;;5061927;28;20476;-48
2023/12/29 09:20:18;;;;;;;3.10;1.10;;;11.00;99.90;;;;;;5051664;28;20392;-50
2023/12/29 09:22:43;;;;;;;6.20;2.65;;;11.00;99.90;;;;;;5051393;28;20096;-52
2023/12/29 09:25:09;;;;;;;4.40;1.65;;;11.00;99.90;;;;;;5051720;28;20434;-48
2023/12/29 09:27:34;;;;;;;3.28;1.42;;;11.10;99.90;;;;;;5057498;28;20029;-46
2023/12/29 09:30:00;;;;;;;5.63;1.30;;;11.00;99.90;;;;;;5068212;28;20052;-54
2023/12/29 09:32:25;;;;;;;5.35;1.50;;;11.10;99.90;;;;;;5061007;28;20120;-49
2023/12/29 09:34:51;;;;;;;2.05;1.33;;;11.10;99.90;;;;;;5052391;28;20035;-50
2023/12/29 09:37:17;;;;;;;3.22;1.48;;;11.20;99.90;;;;;;5055458;28;20021;-46
2023/12/29 09:39:43;;;;;;;3.75;1.42;;;11.20;99.90;;;;;;5067784;28;20556;-48
2023/12/29 09:42:18;;;;;;;1.67;1.23;;;11.20;99.90;;;;;;5033203;28;20156;-51
2023/12/29 09:44:44;;;;;;;3.07;1.17;;;11.20;99.90;;;;;;5051705;28;20400;-51
2023/12/29 09:47:12;;;;;;;2.58;1.33;;;11.20;99.90;;;;;;5033929;28;20025;-45
2023/12/29 09:49:39;;;;;;;2.78;1.30;;;11.30;99.90;;;;;;5051322;28;20033;-48
2023/12/29 09:52:07;;;;;;;1.52;1.20;;;11.40;99.90;;;;;;5051197;28;20384;-46
2023/12/29 09:54:33;;;;;;;2.30;1.75;;;11.40;99.90;;;;;;5051438;28;20550;-49
2023/12/29 09:56:59;;;;;;;2.90;1.40;;;11.50;99.90;;;;;;5051300;28;20078;-50
2023/12/29 09:59:27;;;;;;;4.15;1.60;;;11.60;99.90;;;;;;5051418;28;20029;-49
2023/12/29 10:01:54;;;;;;;3.70;1.25;;;11.70;99.90;;;;;;5050896;28;20381;-48
2023/12/29 10:04:19;;;;;;;6.72;1.60;;;11.70;99.90;;;;;;5054300;28;20025;-51
2023/12/29 10:06:49;;;;;;;3.15;1.45;;;11.80;99.90;;;;;;5055228;28;20027;-46
2023/12/29 10:09:16;;;;;;;3.85;1.05;;;11.80;99.90;;;;;;5055342;28;20071;-44
2023/12/29 10:11:46;;;;;;;3.05;1.00;;;12.00;99.90;;;;;;5063955;28;20396;-45
2023/12/29 10:14:26;;;;;;;3.42;1.30;;;12.00;99.90;;;;;;5061449;28;20477;-46
2023/12/29 10:17:06;;;;;;;1.88;1.65;;;11.80;99.90;;;;;;5067615;28;20037;-48
2023/12/29 10:19:41;;;;;;;2.10;1.58;;;11.80;99.90;;;;;;5061717;28;20080;-48
2023/12/29 10:22:18;;;;;;;2.85;1.17;;;11.80;99.90;;;;;;5061612;28;20067;-47
2023/12/29 10:24:45;;;;;;;2.22;1.38;;;11.70;99.90;;;;;;5057209;28;20041;-46
2023/12/29 10:27:11;;;;;;;1.88;0.93;;;11.60;99.90;;;;;;5055526;28;20511;-46
2023/12/29 10:29:37;;;;;;;3.20;1.58;;;11.70;99.90;;;;;;5054886;28;20033;-44
2023/12/29 10:32:03;;;;;;;3.50;1.90;;;11.70;99.90;;;;;;5063583;28;20358;-46
2023/12/29 10:34:29;;;;;;;7.13;2.75;;;11.70;99.90;;;;;;5069783;28;20123;-48
2023/12/29 10:36:55;;;;;;;5.95;1.50;;;11.80;99.90;;;;;;5065880;28;20028;-50
2023/12/29 10:39:21;;;;;;;3.08;1.33;;;11.80;99.90;;;;;;5081619;28;20157;-47
2023/12/29 10:41:47;;;;;;;5.25;1.65;;;11.70;99.90;;;;;;5094576;28;20107;-49
2023/12/29 10:44:12;;;;;;;2.75;1.20;;;11.70;99.90;;;;;;5094910;28;20110;-46
2023/12/29 10:46:38;;;;;;;3.22;1.17;;;11.70;99.90;;;;;;5078811;28;20021;-44
2023/12/29 10:49:11;;;;;;;2.63;1.15;;;11.70;99.90;;;;;;5056267;28;20028;-49
2023/12/29 10:51:38;;;;;;;1.55;1.10;;;11.70;99.90;;;;;;5071669;28;20013;-47
2023/12/29 10:54:04;;;;;;;2.40;1.55;;;11.60;99.90;;;;;;5066561;28;20035;-45
2023/12/29 10:56:30;;;;;;;2.60;1.52;;;11.70;99.90;;;;;;5070749;28;20013;-46
2023/12/29 10:59:02;;;;;;;1.48;1.38;;;11.70;99.90;;;;;;5067743;28;20020;-46
2023/12/29 11:01:27;;;;;;;3.60;1.52;;;11.60;99.90;;;;;;5073712;28;20021;-49
2023/12/29 11:04:06;;;;;;;1.85;1.33;;;11.60;99.90;;;;;;5072745;28;20035;-45
2023/12/29 11:06:46;;;;;;;2.05;1.55;;;11.50;99.90;;;;;;5072487;28;20395;-50
2023/12/29 11:09:12;;;;;;;2.40;1.20;;;11.60;99.90;;;;;;5054206;28;20527;-47
2023/12/29 11:11:38;;;;;;;2.35;1.23;;;11.60;99.90;;;;;;5068508;28;20029;-47
2023/12/29 11:14:04;;;;;;;3.50;1.17;;;11.60;99.90;;;;;;5059897;28;20024;-48
2023/12/29 11:16:31;;;;;;;4.55;1.58;;;11.60;99.90;;;;;;5066772;28;20017;-52
2023/12/29 11:18:58;;;;;;;2.45;1.55;;;11.50;99.90;;;;;;5058167;28;20021;-49
2023/12/29 11:21:27;;;;;;;1.23;1.10;;;11.50;99.90;;;;;;5066151;28;20239;-54
2023/12/29 11:23:53;;;;;;;4.15;1.42;;;11.60;99.90;;;;;;5058853;28;20444;-55
2023/12/29 11:26:19;;;;;;;2.50;1.50;;;11.60;99.90;;;;;;5061299;28;20063;-53
2023/12/29 11:28:48;;;;;;;1.40;1.20;;;11.50;99.90;;;;;;5080315;28;20131;-54
2023/12/29 11:31:16;;;;;;;1.40;1.02;;;11.50;99.90;;;;;;5090492;28;20039;-47
2023/12/29 11:33:50;;;;;;;5.57;1.17;;;11.60;99.90;;;;;;5073227;28;20056;-50
2023/12/29 11:36:27;;;;;;;1.98;0.98;;;11.60;99.90;;;;;;5073607;28;20031;-50
2023/12/29 11:39:24;;;;;;;3.15;1.25;;;11.60;99.90;;;;;;5062190;28;20021;-46
2023/12/29 11:42:12;;;;;;;4.45;1.10;;;11.60;99.90;;;;;;5074589;28;20500;-45
2023/12/29 11:44:38;;;;;;;2.58;1.30;;;11.60;99.90;;;;;;5055878;28;20025;-48
2023/12/29 11:47:03;;;;;;;1.52;1.10;;;11.60;99.90;;;;;;5093798;28;20099;-48
2023/12/29 11:50:01;;;;;;;3.30;1.08;;;11.60;99.90;;;;;;5094182;28;20016;-52
2023/12/29 11:52:34;;;;;;;1.23;1.13;;;11.70;99.90;;;;;;5093282;28;20032;-49
2023/12/29 11:55:11;;;;;;;1.10;0.93;;;11.70;99.90;;;;;;5075446;28;20506;-51
2023/12/29 11:57:39;;;;;;;2.55;1.10;;;11.80;99.90;;;;;;5084008;28;20021;-46
2023/12/29 12:00:05;;;;;;;1.38;1.27;;;11.70;99.90;;;;;;5067287;28;20032;-55
2023/12/29 12:02:32;;;;;;;2.85;1.30;;;11.60;99.90;;;;;;5045575;28;20025;-48
2023/12/29 12:04:57;;;;;;;4.13;1.15;;;11.70;99.90;;;;;;5057658;28;20029;-52
2023/12/29 12:07:23;;;;;;;6.55;1.00;;;11.70;99.90;;;;;;5066862;28;20086;-51
2023/12/29 12:09:49;;;;;;;3.90;1.20;;;11.70;99.90;;;;;;5053287;28;20381;-48
2023/12/29 12:12:40;;;;;;;5.15;1.63;;;11.70;99.90;;;;;;5060854;28;20032;-48
2023/12/29 12:15:32;;;;;;;1.95;1.13;;;11.70;99.90;;;;;;5070552;28;20166;-57
2023/12/29 12:18:06;;;;;;;3.03;0.90;;;11.70;99.90;;;;;;5071004;28;20016;-43
2023/12/29 12:20:32;;;;;;;4.13;1.10;;;11.70;99.90;;;;;;5061284;28;20485;-51
2023/12/29 12:23:03;;;;;;;4.50;0.98;;;11.70;99.90;;;;;;5061468;28;20037;-53
2023/12/29 12:25:34;;;;;;;3.75;1.38;;;11.70;99.90;;;;;;5071672;28;20039;-51
2023/12/29 12:28:02;;;;;;;3.90;0.93;;;11.80;99.90;;;;;;5054485;28;20492;-47
2023/12/29 12:30:29;;;;;;;3.60;0.80;;;11.80;99.90;;;;;;5053777;28;20044;-51
2023/12/29 12:32:59;;;;;;;2.90;1.20;;;11.90;99.90;;;;;;5065704;28;20036;-54
2023/12/29 12:35:26;;;;;;;6.43;1.90;;;11.90;99.90;;;;;;5059000;28;20033;-54
2023/12/29 12:38:11;;;;;;;3.38;1.52;;;;;;;;;;5047320;28;20029;-52
2023/12/29 12:40:37;;;;;;;1.88;1.23;;;12.00;99.90;;;;;;5071291;28;20070;-50
2023/12/29 12:43:03;;;;;;;3.38;1.15;;;12.00;99.90;;;;;;5072167;28;20028;-49
2023/12/29 12:45:42;;;;;;;2.72;0.70;;;12.00;99.90;;;;;;5071540;28;20024;-54
2023/12/29 12:48:28;;;;;;;3.10;1.35;;;12.00;99.90;;;;;;5054150;28;20373;-53
2023/12/29 12:50:56;;;;;;;1.52;0.93;;;12.10;99.90;;;;;;5072210;28;20020;-52
2023/12/29 12:53:23;;;;;;;3.20;1.13;;;12.10;99.90;;;;;;5072328;28;20024;-52